sensor_id;sensor_type;location;lat;lon;timestamp;P1;durP1;ratioP1;P2;durP2;ratioP2
44578;SDS011;37422;51.402;0.016;2022-09-30T00:01:46;26.30;;;15.13;;
44578;SDS011;37422;51.402;0.016;2022-09-30T00:04:15;27.10;;;16.08;;
44578;SDS011;37422;51.402;0.016;2022-09-30T00:06:46;26.67;;;15.20;;
44578;SDS011;37422;51.402;0.016;2022-09-30T00:09:18;26.45;;;16.13;;
44578;SDS011;37422;51.402;0.016;2022-09-30T00:11:46;27.20;;;16.90;;
44578;SDS011;37422;51.402;0.016;2022-09-30T00:14:15;26.30;;;15.98;;
44578;SDS011;37422;51.402;0.016;2022-09-30T00:16:45;27.05;;;15.48;;
44578;SDS011;37422;51.402;0.016;2022-09-30T00:19:13;28.40;;;17.05;;
44578;SDS011;37422;51.402;0.016;2022-09-30T00:21:42;27.02;;;15.65;;
44578;SDS011;37422;51.402;0.016;2022-09-30T00:24:10;25.73;;;13.35;;
44578;SDS011;37422;51.402;0.016;2022-09-30T00:26:38;24.58;;;13.80;;
44578;SDS011;37422;51.402;0.016;2022-09-30T00:29:06;26.05;;;13.85;;
44578;SDS011;37422;51.402;0.016;2022-09-30T00:31:34;24.23;;;15.32;;
44578;SDS011;37422;51.402;0.016;2022-09-30T00:34:02;31.58;;;17.42;;
44578;SDS011;37422;51.402;0.016;2022-09-30T00:36:35;28.00;;;17.30;;
44578;SDS011;37422;51.402;0.016;2022-09-30T00:39:05;23.43;;;15.10;;
44578;SDS011;37422;51.402;0.016;2022-09-30T00:52:41;26.00;;;16.52;;
44578;SDS011;37422;51.402;0.016;2022-09-30T00:55:22;26.42;;;15.23;;
44578;SDS011;37422;51.402;0.016;2022-09-30T00:58:05;28.02;;;15.15;;
44578;SDS011;37422;51.402;0.016;2022-09-30T01:00:36;25.35;;;13.63;;
44578;SDS011;37422;51.402;0.016;2022-09-30T01:03:03;23.75;;;13.80;;
44578;SDS011;37422;51.402;0.016;2022-09-30T01:05:32;25.45;;;14.05;;
44578;SDS011;37422;51.402;0.016;2022-09-30T01:08:03;26.83;;;15.93;;
44578;SDS011;37422;51.402;0.016;2022-09-30T01:10:32;26.08;;;16.08;;
44578;SDS011;37422;51.402;0.016;2022-09-30T01:13:00;26.40;;;13.68;;
44578;SDS011;37422;51.402;0.016;2022-09-30T01:15:32;22.80;;;14.15;;
44578;SDS011;37422;51.402;0.016;2022-09-30T01:21:35;24.20;;;12.82;;
44578;SDS011;37422;51.402;0.016;2022-09-30T01:30:05;18.58;;;10.98;;
44578;SDS011;37422;51.402;0.016;2022-09-30T01:33:22;20.45;;;11.10;;
44578;SDS011;37422;51.402;0.016;2022-09-30T01:46:42;18.27;;;10.27;;
44578;SDS011;37422;51.402;0.016;2022-09-30T01:49:29;19.98;;;10.10;;
44578;SDS011;37422;51.402;0.016;2022-09-30T02:00:20;19.65;;;10.65;;
44578;SDS011;37422;51.402;0.016;2022-09-30T02:02:49;19.45;;;9.77;;
44578;SDS011;37422;51.402;0.016;2022-09-30T02:05:31;20.20;;;11.43;;
44578;SDS011;37422;51.402;0.016;2022-09-30T02:08:10;19.02;;;11.25;;
44578;SDS011;37422;51.402;0.016;2022-09-30T02:10:51;18.63;;;10.52;;
44578;SDS011;37422;51.402;0.016;2022-09-30T02:13:29;21.23;;;11.45;;
44578;SDS011;37422;51.402;0.016;2022-09-30T02:16:04;20.85;;;11.77;;
44578;SDS011;37422;51.402;0.016;2022-09-30T02:18:43;19.05;;;11.88;;
44578;SDS011;37422;51.402;0.016;2022-09-30T02:21:26;20.25;;;11.57;;
44578;SDS011;37422;51.402;0.016;2022-09-30T02:24:01;20.15;;;11.43;;
44578;SDS011;37422;51.402;0.016;2022-09-30T02:26:33;22.15;;;12.20;;
44578;SDS011;37422;51.402;0.016;2022-09-30T02:29:16;24.38;;;12.52;;
44578;SDS011;37422;51.402;0.016;2022-09-30T02:31:49;23.63;;;12.10;;
44578;SDS011;37422;51.402;0.016;2022-09-30T02:34:22;21.13;;;13.30;;
44578;SDS011;37422;51.402;0.016;2022-09-30T02:37:05;21.08;;;12.82;;
44578;SDS011;37422;51.402;0.016;2022-09-30T02:42:31;23.00;;;13.65;;
44578;SDS011;37422;51.402;0.016;2022-09-30T02:45:00;23.77;;;13.32;;
44578;SDS011;37422;51.402;0.016;2022-09-30T02:47:55;24.42;;;13.25;;
44578;SDS011;37422;51.402;0.016;2022-09-30T02:53:12;20.75;;;12.13;;
44578;SDS011;37422;51.402;0.016;2022-09-30T02:56:07;19.17;;;11.02;;
44578;SDS011;37422;51.402;0.016;2022-09-30T02:58:57;17.48;;;10.63;;
44578;SDS011;37422;51.402;0.016;2022-09-30T03:01:24;19.33;;;11.50;;
44578;SDS011;37422;51.402;0.016;2022-09-30T03:03:56;22.75;;;13.93;;
44578;SDS011;37422;51.402;0.016;2022-09-30T03:06:26;22.35;;;13.00;;
44578;SDS011;37422;51.402;0.016;2022-09-30T03:08:54;22.63;;;13.38;;
44578;SDS011;37422;51.402;0.016;2022-09-30T03:11:23;21.50;;;13.00;;
44578;SDS011;37422;51.402;0.016;2022-09-30T03:17:24;23.95;;;12.95;;
44578;SDS011;37422;51.402;0.016;2022-09-30T03:20:00;20.80;;;11.50;;
44578;SDS011;37422;51.402;0.016;2022-09-30T03:22:55;24.02;;;12.75;;
44578;SDS011;37422;51.402;0.016;2022-09-30T03:25:34;26.38;;;12.77;;
44578;SDS011;37422;51.402;0.016;2022-09-30T03:28:20;21.63;;;12.70;;
44578;SDS011;37422;51.402;0.016;2022-09-30T03:33:30;23.30;;;12.60;;
44578;SDS011;37422;51.402;0.016;2022-09-30T03:41:23;21.92;;;12.40;;
44578;SDS011;37422;51.402;0.016;2022-09-30T03:46:43;23.20;;;12.05;;
44578;SDS011;37422;51.402;0.016;2022-09-30T03:49:15;19.83;;;13.02;;
44578;SDS011;37422;51.402;0.016;2022-09-30T03:51:48;20.25;;;12.18;;
44578;SDS011;37422;51.402;0.016;2022-09-30T03:54:17;19.92;;;10.85;;
44578;SDS011;37422;51.402;0.016;2022-09-30T03:56:44;21.95;;;13.25;;
44578;SDS011;37422;51.402;0.016;2022-09-30T03:59:16;21.42;;;11.43;;
44578;SDS011;37422;51.402;0.016;2022-09-30T04:01:50;19.35;;;11.32;;
44578;SDS011;37422;51.402;0.016;2022-09-30T04:04:18;18.27;;;11.48;;
44578;SDS011;37422;51.402;0.016;2022-09-30T04:06:46;19.85;;;11.38;;
44578;SDS011;37422;51.402;0.016;2022-09-30T04:09:14;21.45;;;11.55;;
44578;SDS011;37422;51.402;0.016;2022-09-30T04:11:42;18.23;;;10.88;;
44578;SDS011;37422;51.402;0.016;2022-09-30T04:14:09;18.73;;;10.43;;
44578;SDS011;37422;51.402;0.016;2022-09-30T04:16:37;21.38;;;9.82;;
44578;SDS011;37422;51.402;0.016;2022-09-30T04:19:05;19.55;;;10.23;;
44578;SDS011;37422;51.402;0.016;2022-09-30T04:21:33;20.05;;;10.63;;
44578;SDS011;37422;51.402;0.016;2022-09-30T04:24:00;19.40;;;11.48;;
44578;SDS011;37422;51.402;0.016;2022-09-30T04:26:28;23.48;;;11.40;;
44578;SDS011;37422;51.402;0.016;2022-09-30T04:28:56;20.00;;;11.25;;
44578;SDS011;37422;51.402;0.016;2022-09-30T04:31:24;23.67;;;10.20;;
44578;SDS011;37422;51.402;0.016;2022-09-30T04:33:52;21.83;;;10.68;;
44578;SDS011;37422;51.402;0.016;2022-09-30T04:36:23;18.58;;;10.15;;
44578;SDS011;37422;51.402;0.016;2022-09-30T04:38:50;17.92;;;10.80;;
44578;SDS011;37422;51.402;0.016;2022-09-30T04:41:19;18.95;;;10.07;;
44578;SDS011;37422;51.402;0.016;2022-09-30T04:43:47;22.00;;;10.25;;
44578;SDS011;37422;51.402;0.016;2022-09-30T04:46:19;23.52;;;10.85;;
44578;SDS011;37422;51.402;0.016;2022-09-30T04:48:48;21.55;;;11.32;;
44578;SDS011;37422;51.402;0.016;2022-09-30T04:51:17;22.40;;;12.18;;
44578;SDS011;37422;51.402;0.016;2022-09-30T04:53:46;20.58;;;12.43;;
44578;SDS011;37422;51.402;0.016;2022-09-30T04:56:14;21.60;;;12.02;;
44578;SDS011;37422;51.402;0.016;2022-09-30T04:58:42;27.58;;;12.00;;
44578;SDS011;37422;51.402;0.016;2022-09-30T05:01:11;25.48;;;11.98;;
44578;SDS011;37422;51.402;0.016;2022-09-30T05:03:44;21.65;;;12.02;;
44578;SDS011;37422;51.402;0.016;2022-09-30T05:06:12;21.38;;;12.65;;
44578;SDS011;37422;51.402;0.016;2022-09-30T05:08:40;26.02;;;13.02;;
44578;SDS011;37422;51.402;0.016;2022-09-30T05:11:14;25.92;;;12.35;;
44578;SDS011;37422;51.402;0.016;2022-09-30T05:13:46;21.85;;;12.10;;
44578;SDS011;37422;51.402;0.016;2022-09-30T05:16:14;22.83;;;12.07;;
44578;SDS011;37422;51.402;0.016;2022-09-30T05:18:43;25.20;;;12.57;;
44578;SDS011;37422;51.402;0.016;2022-09-30T05:21:13;22.42;;;13.18;;
44578;SDS011;37422;51.402;0.016;2022-09-30T05:23:43;28.17;;;13.38;;
44578;SDS011;37422;51.402;0.016;2022-09-30T05:26:11;32.90;;;14.68;;
44578;SDS011;37422;51.402;0.016;2022-09-30T05:28:42;30.25;;;15.10;;
44578;SDS011;37422;51.402;0.016;2022-09-30T05:31:10;31.77;;;17.33;;
44578;SDS011;37422;51.402;0.016;2022-09-30T05:33:40;36.45;;;17.63;;
44578;SDS011;37422;51.402;0.016;2022-09-30T05:36:09;41.15;;;21.65;;
44578;SDS011;37422;51.402;0.016;2022-09-30T05:38:39;34.50;;;17.52;;
44578;SDS011;37422;51.402;0.016;2022-09-30T05:41:11;33.40;;;17.63;;
44578;SDS011;37422;51.402;0.016;2022-09-30T05:43:40;39.40;;;19.35;;
44578;SDS011;37422;51.402;0.016;2022-09-30T05:46:11;38.80;;;19.25;;
44578;SDS011;37422;51.402;0.016;2022-09-30T05:48:40;33.17;;;18.48;;
44578;SDS011;37422;51.402;0.016;2022-09-30T05:51:08;33.92;;;17.77;;
44578;SDS011;37422;51.402;0.016;2022-09-30T05:53:36;38.45;;;18.17;;
44578;SDS011;37422;51.402;0.016;2022-09-30T05:56:05;39.75;;;19.48;;
44578;SDS011;37422;51.402;0.016;2022-09-30T05:58:34;41.45;;;20.55;;
44578;SDS011;37422;51.402;0.016;2022-09-30T06:01:06;51.67;;;20.23;;
44578;SDS011;37422;51.402;0.016;2022-09-30T06:03:43;41.30;;;22.95;;
44578;SDS011;37422;51.402;0.016;2022-09-30T06:06:13;63.80;;;20.90;;
44578;SDS011;37422;51.402;0.016;2022-09-30T06:08:42;50.88;;;17.95;;
44578;SDS011;37422;51.402;0.016;2022-09-30T06:11:11;65.53;;;18.75;;
44578;SDS011;37422;51.402;0.016;2022-09-30T06:13:44;56.10;;;19.65;;
44578;SDS011;37422;51.402;0.016;2022-09-30T06:16:13;43.08;;;17.48;;
44578;SDS011;37422;51.402;0.016;2022-09-30T06:18:43;41.65;;;18.33;;
44578;SDS011;37422;51.402;0.016;2022-09-30T06:21:12;42.72;;;19.23;;
44578;SDS011;37422;51.402;0.016;2022-09-30T06:23:43;54.85;;;18.38;;
44578;SDS011;37422;51.402;0.016;2022-09-30T06:26:12;40.22;;;16.67;;
44578;SDS011;37422;51.402;0.016;2022-09-30T06:28:41;39.10;;;14.77;;
44578;SDS011;37422;51.402;0.016;2022-09-30T06:31:10;38.50;;;16.02;;
44578;SDS011;37422;51.402;0.016;2022-09-30T06:33:38;39.75;;;17.77;;
44578;SDS011;37422;51.402;0.016;2022-09-30T06:36:05;37.95;;;15.43;;
44578;SDS011;37422;51.402;0.016;2022-09-30T06:38:33;40.00;;;17.45;;
44578;SDS011;37422;51.402;0.016;2022-09-30T06:41:06;36.03;;;15.40;;
44578;SDS011;37422;51.402;0.016;2022-09-30T06:43:41;33.63;;;16.30;;
44578;SDS011;37422;51.402;0.016;2022-09-30T06:46:13;32.90;;;13.57;;
44578;SDS011;37422;51.402;0.016;2022-09-30T06:48:54;37.58;;;14.50;;
44578;SDS011;37422;51.402;0.016;2022-09-30T06:51:36;32.17;;;12.50;;
44578;SDS011;37422;51.402;0.016;2022-09-30T06:54:04;42.58;;;14.75;;
44578;SDS011;37422;51.402;0.016;2022-09-30T06:56:32;32.28;;;13.60;;
44578;SDS011;37422;51.402;0.016;2022-09-30T06:59:00;38.55;;;15.43;;
44578;SDS011;37422;51.402;0.016;2022-09-30T07:01:28;47.03;;;15.65;;
44578;SDS011;37422;51.402;0.016;2022-09-30T07:03:56;31.95;;;15.18;;
44578;SDS011;37422;51.402;0.016;2022-09-30T07:06:24;35.88;;;14.93;;
44578;SDS011;37422;51.402;0.016;2022-09-30T07:08:52;36.72;;;17.38;;
44578;SDS011;37422;51.402;0.016;2022-09-30T07:11:21;37.45;;;16.40;;
44578;SDS011;37422;51.402;0.016;2022-09-30T07:13:50;36.83;;;16.00;;
44578;SDS011;37422;51.402;0.016;2022-09-30T07:16:18;36.05;;;15.23;;
44578;SDS011;37422;51.402;0.016;2022-09-30T07:18:47;33.45;;;16.17;;
44578;SDS011;37422;51.402;0.016;2022-09-30T07:21:15;27.67;;;13.93;;
44578;SDS011;37422;51.402;0.016;2022-09-30T07:23:43;28.00;;;15.20;;
44578;SDS011;37422;51.402;0.016;2022-09-30T07:26:14;33.38;;;15.57;;
44578;SDS011;37422;51.402;0.016;2022-09-30T07:28:44;24.98;;;12.65;;
44578;SDS011;37422;51.402;0.016;2022-09-30T07:31:13;25.58;;;12.70;;
44578;SDS011;37422;51.402;0.016;2022-09-30T07:33:59;27.90;;;12.45;;
44578;SDS011;37422;51.402;0.016;2022-09-30T07:36:33;25.67;;;13.00;;
44578;SDS011;37422;51.402;0.016;2022-09-30T07:39:04;22.93;;;11.53;;
44578;SDS011;37422;51.402;0.016;2022-09-30T07:41:35;22.50;;;11.02;;
44578;SDS011;37422;51.402;0.016;2022-09-30T07:44:06;24.13;;;12.23;;
44578;SDS011;37422;51.402;0.016;2022-09-30T07:46:36;21.90;;;11.35;;
44578;SDS011;37422;51.402;0.016;2022-09-30T07:49:07;21.30;;;10.85;;
44578;SDS011;37422;51.402;0.016;2022-09-30T07:51:41;23.48;;;11.35;;
44578;SDS011;37422;51.402;0.016;2022-09-30T07:54:13;22.58;;;12.10;;
44578;SDS011;37422;51.402;0.016;2022-09-30T07:56:42;22.10;;;12.13;;
44578;SDS011;37422;51.402;0.016;2022-09-30T07:59:32;22.98;;;12.68;;
44578;SDS011;37422;51.402;0.016;2022-09-30T08:02:04;21.58;;;12.00;;
44578;SDS011;37422;51.402;0.016;2022-09-30T08:04:32;21.10;;;12.27;;
44578;SDS011;37422;51.402;0.016;2022-09-30T08:07:04;21.83;;;12.45;;
44578;SDS011;37422;51.402;0.016;2022-09-30T08:09:31;22.50;;;11.98;;
44578;SDS011;37422;51.402;0.016;2022-09-30T08:12:01;21.75;;;11.55;;
44578;SDS011;37422;51.402;0.016;2022-09-30T08:14:30;20.58;;;11.40;;
44578;SDS011;37422;51.402;0.016;2022-09-30T08:16:59;20.77;;;12.25;;
44578;SDS011;37422;51.402;0.016;2022-09-30T08:19:28;18.77;;;10.82;;
44578;SDS011;37422;51.402;0.016;2022-09-30T08:21:57;16.07;;;9.80;;
44578;SDS011;37422;51.402;0.016;2022-09-30T08:24:25;17.98;;;9.52;;
44578;SDS011;37422;51.402;0.016;2022-09-30T08:26:53;17.02;;;8.57;;
44578;SDS011;37422;51.402;0.016;2022-09-30T08:29:22;16.98;;;9.60;;
44578;SDS011;37422;51.402;0.016;2022-09-30T08:32:09;19.83;;;9.02;;
44578;SDS011;37422;51.402;0.016;2022-09-30T08:34:37;21.15;;;8.88;;
44578;SDS011;37422;51.402;0.016;2022-09-30T08:37:05;13.88;;;8.25;;
44578;SDS011;37422;51.402;0.016;2022-09-30T08:39:36;13.27;;;7.68;;
44578;SDS011;37422;51.402;0.016;2022-09-30T08:42:14;16.05;;;8.50;;
44578;SDS011;37422;51.402;0.016;2022-09-30T08:45:11;13.43;;;7.65;;
44578;SDS011;37422;51.402;0.016;2022-09-30T08:47:55;15.05;;;9.30;;
44578;SDS011;37422;51.402;0.016;2022-09-30T08:53:20;15.70;;;8.35;;
44578;SDS011;37422;51.402;0.016;2022-09-30T08:55:53;14.05;;;7.50;;
44578;SDS011;37422;51.402;0.016;2022-09-30T08:58:27;14.98;;;7.93;;
44578;SDS011;37422;51.402;0.016;2022-09-30T09:01:25;15.75;;;8.25;;
44578;SDS011;37422;51.402;0.016;2022-09-30T09:03:58;14.75;;;8.43;;
44578;SDS011;37422;51.402;0.016;2022-09-30T09:20:49;17.10;;;9.55;;
44578;SDS011;37422;51.402;0.016;2022-09-30T09:23:28;17.23;;;9.20;;
44578;SDS011;37422;51.402;0.016;2022-09-30T09:25:58;16.88;;;9.65;;
44578;SDS011;37422;51.402;0.016;2022-09-30T09:28:33;15.90;;;8.77;;
44578;SDS011;37422;51.402;0.016;2022-09-30T09:31:41;22.50;;;9.75;;
44578;SDS011;37422;51.402;0.016;2022-09-30T09:34:09;18.23;;;9.05;;
44578;SDS011;37422;51.402;0.016;2022-09-30T09:45:22;15.63;;;7.43;;
44578;SDS011;37422;51.402;0.016;2022-09-30T09:47:55;11.75;;;6.88;;
44578;SDS011;37422;51.402;0.016;2022-09-30T09:50:26;13.23;;;6.88;;
44578;SDS011;37422;51.402;0.016;2022-09-30T09:55:48;12.85;;;7.22;;
44578;SDS011;37422;51.402;0.016;2022-09-30T09:58:21;15.50;;;7.60;;
44578;SDS011;37422;51.402;0.016;2022-09-30T10:00:49;16.85;;;7.00;;
44578;SDS011;37422;51.402;0.016;2022-09-30T10:06:05;15.18;;;6.93;;
44578;SDS011;37422;51.402;0.016;2022-09-30T10:08:37;16.02;;;7.80;;
44578;SDS011;37422;51.402;0.016;2022-09-30T10:11:07;15.93;;;8.50;;
44578;SDS011;37422;51.402;0.016;2022-09-30T10:13:46;15.23;;;7.00;;
44578;SDS011;37422;51.402;0.016;2022-09-30T10:19:02;14.73;;;7.43;;
44578;SDS011;37422;51.402;0.016;2022-09-30T10:21:35;12.88;;;6.75;;
44578;SDS011;37422;51.402;0.016;2022-09-30T10:26:55;17.13;;;6.38;;
44578;SDS011;37422;51.402;0.016;2022-09-30T10:29:27;17.38;;;6.85;;
44578;SDS011;37422;51.402;0.016;2022-09-30T10:32:05;14.15;;;5.97;;
44578;SDS011;37422;51.402;0.016;2022-09-30T10:34:35;10.57;;;5.60;;
44578;SDS011;37422;51.402;0.016;2022-09-30T10:37:23;11.57;;;5.80;;
44578;SDS011;37422;51.402;0.016;2022-09-30T10:39:55;10.65;;;5.15;;
44578;SDS011;37422;51.402;0.016;2022-09-30T10:42:35;10.88;;;5.82;;
44578;SDS011;37422;51.402;0.016;2022-09-30T10:45:07;12.70;;;5.32;;
44578;SDS011;37422;51.402;0.016;2022-09-30T10:47:48;9.43;;;5.28;;
44578;SDS011;37422;51.402;0.016;2022-09-30T10:50:20;8.85;;;5.18;;
44578;SDS011;37422;51.402;0.016;2022-09-30T10:55:31;11.73;;;6.07;;
44578;SDS011;37422;51.402;0.016;2022-09-30T11:01:19;11.50;;;6.10;;
44578;SDS011;37422;51.402;0.016;2022-09-30T11:06:39;10.30;;;6.00;;
44578;SDS011;37422;51.402;0.016;2022-09-30T11:11:44;8.68;;;5.20;;
44578;SDS011;37422;51.402;0.016;2022-09-30T11:14:47;12.13;;;5.00;;
44578;SDS011;37422;51.402;0.016;2022-09-30T11:20:16;9.88;;;5.40;;
44578;SDS011;37422;51.402;0.016;2022-09-30T11:22:52;8.07;;;4.80;;
44578;SDS011;37422;51.402;0.016;2022-09-30T11:25:34;6.68;;;4.03;;
44578;SDS011;37422;51.402;0.016;2022-09-30T11:28:19;10.13;;;4.20;;
44578;SDS011;37422;51.402;0.016;2022-09-30T11:31:16;6.53;;;4.03;;
44578;SDS011;37422;51.402;0.016;2022-09-30T11:34:15;6.75;;;3.80;;
44578;SDS011;37422;51.402;0.016;2022-09-30T11:39:41;8.60;;;4.40;;
44578;SDS011;37422;51.402;0.016;2022-09-30T11:44:45;6.25;;;3.92;;
44578;SDS011;37422;51.402;0.016;2022-09-30T11:47:33;8.25;;;3.50;;
44578;SDS011;37422;51.402;0.016;2022-09-30T11:56:00;7.03;;;3.03;;
44578;SDS011;37422;51.402;0.016;2022-09-30T11:58:57;5.43;;;3.05;;
44578;SDS011;37422;51.402;0.016;2022-09-30T12:01:30;7.40;;;3.40;;
44578;SDS011;37422;51.402;0.016;2022-09-30T12:04:09;4.40;;;2.60;;
44578;SDS011;37422;51.402;0.016;2022-09-30T12:06:48;6.22;;;3.10;;
44578;SDS011;37422;51.402;0.016;2022-09-30T12:12:06;4.65;;;2.90;;
44578;SDS011;37422;51.402;0.016;2022-09-30T12:14:48;3.25;;;2.35;;
44578;SDS011;37422;51.402;0.016;2022-09-30T12:17:36;10.00;;;3.13;;
44578;SDS011;37422;51.402;0.016;2022-09-30T12:25:17;4.85;;;2.88;;
44578;SDS011;37422;51.402;0.016;2022-09-30T12:27:53;5.15;;;2.70;;
44578;SDS011;37422;51.402;0.016;2022-09-30T12:30:49;5.55;;;3.00;;
44578;SDS011;37422;51.402;0.016;2022-09-30T12:36:20;5.15;;;2.78;;
44578;SDS011;37422;51.402;0.016;2022-09-30T12:39:06;5.47;;;2.45;;
44578;SDS011;37422;51.402;0.016;2022-09-30T12:44:38;4.43;;;2.20;;
44578;SDS011;37422;51.402;0.016;2022-09-30T12:47:31;5.18;;;2.28;;
44578;SDS011;37422;51.402;0.016;2022-09-30T12:50:13;3.35;;;2.40;;
44578;SDS011;37422;51.402;0.016;2022-09-30T12:52:46;7.43;;;2.13;;
44578;SDS011;37422;51.402;0.016;2022-09-30T12:57:48;4.40;;;2.00;;
44578;SDS011;37422;51.402;0.016;2022-09-30T13:00:18;4.82;;;2.30;;
44578;SDS011;37422;51.402;0.016;2022-09-30T13:02:53;3.03;;;1.70;;
44578;SDS011;37422;51.402;0.016;2022-09-30T13:15:54;3.08;;;1.77;;
44578;SDS011;37422;51.402;0.016;2022-09-30T13:27:05;4.15;;;1.92;;
44578;SDS011;37422;51.402;0.016;2022-09-30T13:28:54;4.88;;;2.20;;
44578;SDS011;37422;51.402;0.016;2022-09-30T13:34:12;5.72;;;2.45;;
44578;SDS011;37422;51.402;0.016;2022-09-30T13:39:26;8.35;;;2.63;;
44578;SDS011;37422;51.402;0.016;2022-09-30T13:44:58;3.22;;;2.72;;
44578;SDS011;37422;51.402;0.016;2022-09-30T13:52:58;6.15;;;2.88;;
44578;SDS011;37422;51.402;0.016;2022-09-30T13:55:40;7.22;;;2.85;;
44578;SDS011;37422;51.402;0.016;2022-09-30T14:06:23;9.38;;;3.13;;
44578;SDS011;37422;51.402;0.016;2022-09-30T14:09:03;7.35;;;2.95;;
44578;SDS011;37422;51.402;0.016;2022-09-30T14:11:52;8.32;;;3.08;;
44578;SDS011;37422;51.402;0.016;2022-09-30T14:23:28;12.90;;;3.22;;
44578;SDS011;37422;51.402;0.016;2022-09-30T14:28:41;8.38;;;2.80;;
44578;SDS011;37422;51.402;0.016;2022-09-30T14:31:17;6.88;;;3.30;;
44578;SDS011;37422;51.402;0.016;2022-09-30T14:33:46;10.07;;;3.70;;
44578;SDS011;37422;51.402;0.016;2022-09-30T14:36:17;5.80;;;2.88;;
44578;SDS011;37422;51.402;0.016;2022-09-30T14:38:50;6.72;;;2.97;;
44578;SDS011;37422;51.402;0.016;2022-09-30T14:41:21;9.35;;;2.83;;
44578;SDS011;37422;51.402;0.016;2022-09-30T14:43:51;6.25;;;2.63;;
44578;SDS011;37422;51.402;0.016;2022-09-30T14:49:03;7.53;;;2.78;;
44578;SDS011;37422;51.402;0.016;2022-09-30T14:51:40;10.35;;;2.90;;
44578;SDS011;37422;51.402;0.016;2022-09-30T14:54:14;5.88;;;2.50;;
44578;SDS011;37422;51.402;0.016;2022-09-30T14:56:44;8.70;;;2.25;;
44578;SDS011;37422;51.402;0.016;2022-09-30T14:59:17;9.23;;;2.60;;
44578;SDS011;37422;51.402;0.016;2022-09-30T15:01:49;8.05;;;2.92;;
44578;SDS011;37422;51.402;0.016;2022-09-30T15:04:25;7.72;;;2.70;;
44578;SDS011;37422;51.402;0.016;2022-09-30T15:06:54;7.90;;;3.00;;
44578;SDS011;37422;51.402;0.016;2022-09-30T15:09:25;8.60;;;2.65;;
44578;SDS011;37422;51.402;0.016;2022-09-30T15:11:55;11.00;;;2.83;;
44578;SDS011;37422;51.402;0.016;2022-09-30T15:14:25;6.95;;;3.17;;
44578;SDS011;37422;51.402;0.016;2022-09-30T15:16:54;10.07;;;3.53;;
44578;SDS011;37422;51.402;0.016;2022-09-30T15:19:41;14.20;;;4.40;;
44578;SDS011;37422;51.402;0.016;2022-09-30T15:22:09;14.57;;;3.78;;
44578;SDS011;37422;51.402;0.016;2022-09-30T15:24:39;5.20;;;2.88;;
44578;SDS011;37422;51.402;0.016;2022-09-30T15:27:12;13.88;;;3.97;;
44578;SDS011;37422;51.402;0.016;2022-09-30T15:29:55;9.90;;;3.63;;
44578;SDS011;37422;51.402;0.016;2022-09-30T15:32:25;13.77;;;5.53;;
44578;SDS011;37422;51.402;0.016;2022-09-30T15:35:06;12.07;;;3.83;;
44578;SDS011;37422;51.402;0.016;2022-09-30T15:37:42;14.95;;;4.65;;
44578;SDS011;37422;51.402;0.016;2022-09-30T15:40:12;15.32;;;4.72;;
44578;SDS011;37422;51.402;0.016;2022-09-30T15:43:04;12.73;;;4.13;;
44578;SDS011;37422;51.402;0.016;2022-09-30T15:45:40;16.13;;;4.70;;
44578;SDS011;37422;51.402;0.016;2022-09-30T15:50:59;13.00;;;3.67;;
44578;SDS011;37422;51.402;0.016;2022-09-30T15:53:47;13.18;;;4.32;;
44578;SDS011;37422;51.402;0.016;2022-09-30T15:59:03;11.30;;;3.63;;
44578;SDS011;37422;51.402;0.016;2022-09-30T16:01:38;8.40;;;3.47;;
44578;SDS011;37422;51.402;0.016;2022-09-30T16:06:43;12.23;;;3.28;;
44578;SDS011;37422;51.402;0.016;2022-09-30T16:09:33;12.40;;;3.70;;
44578;SDS011;37422;51.402;0.016;2022-09-30T16:17:45;10.27;;;3.90;;
44578;SDS011;37422;51.402;0.016;2022-09-30T16:27:45;5.78;;;2.90;;
44578;SDS011;37422;51.402;0.016;2022-09-30T16:30:16;12.68;;;2.95;;
44578;SDS011;37422;51.402;0.016;2022-09-30T16:32:46;21.98;;;9.05;;
44578;SDS011;37422;51.402;0.016;2022-09-30T16:35:22;10.80;;;4.32;;
44578;SDS011;37422;51.402;0.016;2022-09-30T16:37:56;12.80;;;7.15;;
44578;SDS011;37422;51.402;0.016;2022-09-30T16:40:26;23.15;;;9.65;;
44578;SDS011;37422;51.402;0.016;2022-09-30T16:42:55;12.10;;;3.47;;
44578;SDS011;37422;51.402;0.016;2022-09-30T16:45:25;16.65;;;4.15;;
44578;SDS011;37422;51.402;0.016;2022-09-30T16:47:55;14.15;;;3.58;;
44578;SDS011;37422;51.402;0.016;2022-09-30T16:53:13;10.27;;;2.50;;
44578;SDS011;37422;51.402;0.016;2022-09-30T16:55:41;31.77;;;11.30;;
44578;SDS011;37422;51.402;0.016;2022-09-30T16:58:11;36.78;;;16.52;;
44578;SDS011;37422;51.402;0.016;2022-09-30T17:00:40;13.20;;;3.80;;
44578;SDS011;37422;51.402;0.016;2022-09-30T17:03:11;15.40;;;4.47;;
44578;SDS011;37422;51.402;0.016;2022-09-30T17:05:42;20.08;;;5.55;;
44578;SDS011;37422;51.402;0.016;2022-09-30T17:08:15;13.50;;;3.20;;
44578;SDS011;37422;51.402;0.016;2022-09-30T17:10:44;14.70;;;2.90;;
44578;SDS011;37422;51.402;0.016;2022-09-30T17:13:13;21.35;;;7.68;;
44578;SDS011;37422;51.402;0.016;2022-09-30T17:15:45;15.82;;;5.43;;
44578;SDS011;37422;51.402;0.016;2022-09-30T17:18:15;20.95;;;3.63;;
44578;SDS011;37422;51.402;0.016;2022-09-30T17:20:44;21.02;;;4.35;;
44578;SDS011;37422;51.402;0.016;2022-09-30T17:23:14;26.17;;;7.70;;
44578;SDS011;37422;51.402;0.016;2022-09-30T17:25:42;16.10;;;3.35;;
44578;SDS011;37422;51.402;0.016;2022-09-30T17:28:10;15.60;;;3.67;;
44578;SDS011;37422;51.402;0.016;2022-09-30T17:30:39;16.63;;;3.53;;
44578;SDS011;37422;51.402;0.016;2022-09-30T17:33:09;107.25;;;51.75;;
44578;SDS011;37422;51.402;0.016;2022-09-30T17:35:37;28.25;;;15.75;;
44578;SDS011;37422;51.402;0.016;2022-09-30T17:38:10;13.57;;;2.85;;
44578;SDS011;37422;51.402;0.016;2022-09-30T17:40:39;20.15;;;5.15;;
44578;SDS011;37422;51.402;0.016;2022-09-30T17:43:25;18.33;;;3.22;;
44578;SDS011;37422;51.402;0.016;2022-09-30T17:45:53;26.35;;;5.75;;
44578;SDS011;37422;51.402;0.016;2022-09-30T17:48:25;18.35;;;5.97;;
44578;SDS011;37422;51.402;0.016;2022-09-30T17:50:53;18.75;;;5.47;;
44578;SDS011;37422;51.402;0.016;2022-09-30T17:53:21;11.73;;;4.40;;
44578;SDS011;37422;51.402;0.016;2022-09-30T17:55:59;7.50;;;1.77;;
44578;SDS011;37422;51.402;0.016;2022-09-30T17:58:30;11.95;;;2.08;;
44578;SDS011;37422;51.402;0.016;2022-09-30T18:00:58;11.20;;;2.78;;
44578;SDS011;37422;51.402;0.016;2022-09-30T18:03:26;11.45;;;3.97;;
44578;SDS011;37422;51.402;0.016;2022-09-30T18:05:57;11.93;;;2.03;;
44578;SDS011;37422;51.402;0.016;2022-09-30T18:08:25;11.82;;;2.40;;
44578;SDS011;37422;51.402;0.016;2022-09-30T18:10:54;10.88;;;2.45;;
44578;SDS011;37422;51.402;0.016;2022-09-30T18:13:25;8.70;;;2.40;;
44578;SDS011;37422;51.402;0.016;2022-09-30T18:15:54;7.40;;;2.72;;
44578;SDS011;37422;51.402;0.016;2022-09-30T18:18:28;2.83;;;1.52;;
44578;SDS011;37422;51.402;0.016;2022-09-30T18:20:55;11.73;;;2.38;;
44578;SDS011;37422;51.402;0.016;2022-09-30T18:23:23;9.38;;;3.05;;
44578;SDS011;37422;51.402;0.016;2022-09-30T18:25:50;9.07;;;2.65;;
44578;SDS011;37422;51.402;0.016;2022-09-30T18:28:20;12.88;;;2.30;;
44578;SDS011;37422;51.402;0.016;2022-09-30T18:30:47;13.32;;;4.13;;
44578;SDS011;37422;51.402;0.016;2022-09-30T18:33:15;8.70;;;2.95;;
44578;SDS011;37422;51.402;0.016;2022-09-30T18:35:47;14.70;;;2.63;;
44578;SDS011;37422;51.402;0.016;2022-09-30T18:38:17;9.23;;;2.97;;
44578;SDS011;37422;51.402;0.016;2022-09-30T18:40:45;12.90;;;2.40;;
44578;SDS011;37422;51.402;0.016;2022-09-30T18:43:15;9.07;;;2.65;;